Time;durP1;ratioP1;P1;durP2;ratioP2;P2;SDS_P1;SDS_P2;PMS_P1;PMS_P2;Temp;Humidity;BMP_temperature;BMP_pressure;BME280_temperature;BME280_humidity;BME280_pressure;Samples;Min_cycle;Max_cycle;Signal;HPM_P1;HPM_P2
2023/08/28 02:28:38;;;;;;;;;19.25;18.00;;;;;24.44;56.09;100380.72;146702;569;45014;-78
2023/08/28 02:31:39;;;;;;;;;19.25;16.50;;;;;24.53;56.07;100375.31;146620;685;45016;-79
2023/08/28 02:34:35;;;;;;;;;16.50;16.00;;;;;24.72;56.14;100375.97;146624;565;45021;-76
2023/08/28 02:37:43;;;;;;;;;17.75;17.75;;;;;24.88;55.55;100374.88;146619;586;45915;-77
2023/08/28 02:40:51;;;;;;;;;18.25;16.50;;;;;24.95;55.24;100372.16;146622;577;45020;-83
2023/08/28 02:44:06;;;;;;;;;18.25;16.25;;;;;25.02;55.52;100357.94;146619;580;45916;-83
2023/08/28 02:47:11;;;;;;;;;;;;;;;;;;;;;
2023/08/28 02:50:16;;;;;;;;;20.50;18.00;;;;;25.17;54.21;100368.34;146616;662;47014;-79
2023/08/28 02:53:10;;;;;;;;;18.00;15.25;;;;;25.22;53.17;100365.63;146624;563;45020;-75
2023/08/28 02:56:49;;;;;;;;;19.50;17.00;;;;;25.28;54.07;100362.87;146616;570;46012;-74
2023/08/28 02:59:58;;;;;;;;;21.50;20.25;;;;;25.33;52.95;100372.53;146624;641;45020;-77
2023/08/28 03:03:05;;;;;;;;;18.50;16.00;;;;;25.44;53.12;100371.47;146619;600;46012;-78
2023/08/28 03:06:11;;;;;;;;;19.25;16.25;;;;;25.55;52.86;100373.06;146620;638;45033;-77
2023/08/28 03:09:13;;;;;;;;;18.50;17.00;;;;;25.57;52.02;100370.38;146618;608;45912;-79
2023/08/28 03:12:24;;;;;;;;;16.25;16.25;;;;;25.55;52.46;100378.38;146623;710;46010;-77
2023/08/28 03:15:21;;;;;;;;;14.75;14.75;;;;;25.57;52.73;100378.34;146617;657;46913;-74
2023/08/28 03:18:25;;;;;;;;;18.50;16.75;;;;;25.61;52.33;100382.72;146622;591;45020;-75
2023/08/28 03:21:31;;;;;;;;;21.00;19.25;;;;;25.60;52.94;100380.94;146615;646;45911;-74
2023/08/28 03:24:47;;;;;;;;;21.00;18.00;;;;;25.62;53.08;100402.19;146623;608;46014;-75
2023/08/28 03:27:47;;;;;;;;;18.75;17.25;;;;;25.64;52.62;100400.34;146619;579;46012;-74
2023/08/28 03:31:03;;;;;;;;;20.00;18.75;;;;;25.55;52.71;100382.81;146622;649;46010;-75
2023/08/28 03:34:12;;;;;;;;;23.50;20.00;;;;;25.47;52.21;100395.31;146619;564;45017;-77
2023/08/28 03:37:16;;;;;;;;;18.50;18.00;;;;;25.33;52.80;100390.25;146622;659;46010;-83
2023/08/28 03:40:36;;;;;;;;;17.00;16.00;;;;;25.28;53.37;100395.59;146616;660;46012;-78
2023/08/28 03:43:31;;;;;;;;;20.50;18.75;;;;;25.26;53.67;100401.81;146624;618;45021;-77
2023/08/28 03:46:52;;;;;;;;;22.50;17.50;;;;;25.20;54.41;100388.63;146618;578;46012;-77
2023/08/28 03:50:09;;;;;;;;;18.50;17.00;;;;;25.18;54.73;100393.09;146622;615;45021;-78
2023/08/28 03:53:10;;;;;;;;;17.25;15.75;;;;;25.18;54.76;100398.41;146619;573;45022;-78
2023/08/28 03:56:26;;;;;;;;;18.50;18.25;;;;;25.26;55.36;100391.19;146621;596;46010;-80
2023/08/28 03:59:28;;;;;;;;;16.75;14.25;;;;;25.36;54.01;100390.19;146618;566;46012;-75
2023/08/28 04:02:23;;;;;;;;;20.75;17.00;;;;;25.45;54.02;100399.78;146622;581;45020;-74
2023/08/28 04:05:35;;;;;;;;;20.75;18.75;;;;;25.51;54.64;100394.38;146617;567;45916;-74
2023/08/28 04:08:35;;;;;;;;;17.25;17.00;;;;;25.56;53.97;100392.53;146622;656;46010;-80
2023/08/28 04:11:40;;;;;;;;;19.75;17.75;;;;;25.60;54.05;100406.63;146620;612;45914;-78
2023/08/28 04:14:35;;;;;;;;;21.00;20.25;;;;;25.60;53.14;100404.84;146624;599;45020;-79
2023/08/28 04:17:43;;;;;;;;;16.50;16.00;;;;;25.51;53.48;100405.00;146618;657;46012;-77
2023/08/28 04:20:55;;;;;;;;;20.25;18.25;;;;;25.32;54.82;100376.06;146622;604;45021;-81
2023/08/28 04:23:53;;;;;;;;;16.25;15.25;;;;;25.50;54.48;100408.56;146620;638;45915;-79
2023/08/28 04:26:58;;;;;;;;;20.25;16.75;;;;;25.53;54.50;100417.34;146622;580;45021;-72
2023/08/28 04:29:58;;;;;;;;;16.25;15.00;;;;;25.55;54.78;100425.31;146617;564;46012;-77
2023/08/28 04:32:53;;;;;;;;;17.25;17.00;;;;;25.56;54.19;100422.59;146624;588;45020;-77
2023/08/28 04:35:57;;;;;;;;;18.50;18.50;;;;;25.59;54.07;100421.69;146621;664;46012;-77
2023/08/28 04:39:22;;;;;;;;;18.75;16.50;;;;;25.57;54.85;100413.72;146622;608;45022;-75
2023/08/28 04:42:32;;;;;;;;;21.75;19.50;;;;;25.72;54.55;100412.63;146618;573;45861;-80
2023/08/28 04:45:27;;;;;;;;;20.00;19.00;;;;;25.92;53.80;100409.69;146623;618;46010;-75
2023/08/28 04:48:55;;;;;;;;;21.00;19.25;;;;;26.14;53.08;100407.53;146620;603;45018;-76
2023/08/28 04:52:14;;;;;;;;;20.00;19.25;;;;;26.33;53.24;100402.75;146624;582;46010;-75
2023/08/28 04:55:09;;;;;;;;;17.50;16.50;;;;;26.51;53.63;100412.19;146617;583;45017;-76
2023/08/28 04:58:08;;;;;;;;;17.50;15.00;;;;;26.75;53.17;100420.59;146622;728;46010;-76
2023/08/28 05:01:17;;;;;;;;;15.25;14.50;;;;;27.02;53.38;100425.34;146621;718;45915;-76
2023/08/28 05:04:15;;;;;;;;;18.50;17.75;;;;;27.32;52.20;100417.63;146621;659;45044;-76
2023/08/28 05:07:11;;;;;;;;;18.50;16.50;;;;;27.51;51.75;100416.31;146619;668;46012;-82
2023/08/28 05:10:13;;;;;;;;;19.50;18.00;;;;;27.66;51.18;100416.84;146621;579;45020;-82
2023/08/28 05:13:15;;;;;;;;;17.25;17.25;;;;;27.79;51.39;100424.56;146620;602;46012;-76
2023/08/28 05:16:10;;;;;;;;;17.75;16.75;;;;;28.05;52.25;100421.22;146624;702;45020;-75
2023/08/28 05:19:22;;;;;;;;;17.00;16.75;;;;;28.29;50.73;100424.19;146620;590;45914;-75
2023/08/28 05:22:42;;;;;;;;;14.50;14.25;;;;;27.98;50.81;100346.81;146620;702;46008;-78
2023/08/28 05:25:56;;;;;;;;;16.00;16.00;;;;;28.59;50.76;100416.28;146616;572;47016;-76
2023/08/28 05:29:05;;;;;;;;;18.75;18.75;;;;;28.82;50.50;100426.28;146640;680;44020;-78
2023/08/28 05:32:03;;;;;;;;;20.25;19.25;;;;;28.99;48.56;100424.88;146635;570;45013;-78
2023/08/28 05:35:14;;;;;;;;;19.00;19.00;;;;;29.10;49.70;100426.41;146640;701;44021;-78
2023/08/28 05:38:21;;;;;;;;;18.50;16.50;;;;;29.28;50.64;100422.28;146636;572;44016;-81
2023/08/28 05:41:24;;;;;;;;;27.50;25.25;;;;;29.49;49.18;100426.09;146640;605;44043;-80
2023/08/28 05:44:24;;;;;;;;;20.50;17.25;;;;;29.71;49.30;100428.97;146634;565;45014;-78
2023/08/28 05:47:41;;;;;;;;;17.75;17.25;;;;;29.90;49.01;100427.44;146640;605;44021;-76
2023/08/28 05:50:42;;;;;;;;;18.75;16.25;;;;;30.12;49.43;100428.47;146636;594;44913;-75
2023/08/28 05:53:51;;;;;;;;;18.50;17.25;;;;;30.31;47.87;100427.84;146640;602;45010;-84
2023/08/28 05:56:46;;;;;;;;;21.25;18.75;;;;;30.43;47.58;100427.44;146635;628;44914;-76
2023/08/28 05:59:44;;;;;;;;;18.75;17.50;;;;;30.51;47.43;100428.03;146640;573;45010;-75
2023/08/28 06:02:41;;;;;;;;;20.00;18.00;;;;;30.59;46.63;100435.78;146631;642;47914;-75
2023/08/28 06:05:38;;;;;;;;;14.75;14.50;;;;;30.68;46.84;100437.25;146637;693;44020;-80
2023/08/28 06:08:39;;;;;;;;;18.50;17.75;;;;;30.76;45.76;100432.50;146633;675;46013;-79
2023/08/28 06:11:43;;;;;;;;;13.50;12.25;;;;;30.76;45.87;100425.34;146641;690;44020;-81
2023/08/28 06:14:56;;;;;;;;;15.25;15.25;;;;;30.36;47.91;100351.88;146636;625;44918;-87
2023/08/28 23:10:01;;;;;;;;;;;;;;;;;;;;;
2023/08/28 23:13:11;;;;;;;;;13.50;12.00;;;;;24.55;55.66;100131.44;146616;565;45016;-86
2023/08/28 23:16:10;;;;;;;;;16.25;14.25;;;;;24.68;55.49;100125.06;146620;710;46011;-80
2023/08/28 23:19:02;;;;;;;;;13.00;11.00;;;;;24.82;55.40;100120.41;146616;585;45916;-80
2023/08/28 23:22:11;;;;;;;;;13.25;12.00;;;;;24.98;55.42;100122.78;146618;678;45021;-86
2023/08/28 23:25:29;;;;;;;;;;;;;;;;;;;;;
2023/08/28 23:28:36;;;;;;;;;12.25;11.00;;;;;25.29;55.57;100118.69;146619;685;45022;-80
2023/08/28 23:31:36;;;;;;;;;10.50;10.50;;;;;25.45;53.64;100126.38;146616;576;46013;-82
2023/08/28 23:34:40;;;;;;;;;12.33;11.00;;;;;25.55;54.42;100120.00;146620;661;46010;-80
2023/08/28 23:37:42;;;;;;;;;12.67;12.00;;;;;25.68;54.13;100118.84;146614;595;46014;-81
2023/08/28 23:40:37;;;;;;;;;11.00;10.67;;;;;25.82;53.04;100113.25;146617;579;46020;-83
2023/08/28 23:43:50;;;;;;;;;12.00;12.00;;;;;25.82;51.86;100115.91;146616;570;45916;-81
2023/08/28 23:46:55;;;;;;;;;12.00;9.67;;;;;25.72;51.57;100109.91;146620;571;45021;-84
2023/08/28 23:49:55;;;;;;;;;12.00;11.25;;;;;25.66;52.89;100107.38;146619;657;45916;-82
2023/08/28 23:53:03;;;;;;;;;10.00;8.00;;;;;25.69;53.44;100111.75;146620;652;45020;-83
2023/08/28 23:56:15;;;;;;;;;12.25;11.00;;;;;25.72;53.59;100104.59;146622;586;45916;-84
2023/08/28 23:59:15;;;;;;;;;10.00;9.00;;;;;25.79;52.47;100106.22;146618;597;46010;-82
